Time;durP1;ratioP1;P1;durP2;ratioP2;P2;SDS_P1;SDS_P2;PMS_P1;PMS_P2;Temp;Humidity;BMP_temperature;BMP_pressure;BME280_temperature;BME280_humidity;BME280_pressure;Samples;Min_cycle;Max_cycle;Signal;HPM_P1;HPM_P2
2021/05/18 00:00:48;;;;;;;1.63;1.53;;;;;;;14.71;100.00;96320.41;4937380;29;20210;-88
2021/05/18 00:03:17;;;;;;;1.50;1.40;;;;;;;14.74;100.00;96322.69;4937315;29;20203;-88
2021/05/18 00:05:48;;;;;;;3.77;1.80;;;;;;;14.88;100.00;96330.81;4937413;29;20207;-88
2021/05/18 00:08:16;;;;;;;1.43;1.33;;;;;;;14.78;100.00;96341.66;4937233;29;20669;-87
2021/05/18 00:13:34;;;;;;;2.30;1.40;;;;;;;14.39;100.00;96345.34;4937329;29;20212;-88
2021/05/18 00:16:05;;;;;;;1.50;1.40;;;;;;;14.30;100.00;96351.72;4937009;29;20223;-88
2021/05/18 00:18:33;;;;;;;1.60;1.33;;;;;;;14.12;100.00;96346.75;4936963;29;20195;-88
2021/05/18 00:21:00;;;;;;;3.00;1.33;;;;;;;14.19;100.00;96334.47;4937387;29;20200;-88
2021/05/18 00:23:27;;;;;;;2.47;1.33;;;;;;;14.27;100.00;96320.38;4937055;29;20347;-88
2021/05/18 00:25:55;;;;;;;2.23;1.57;;;;;;;14.31;100.00;96316.38;4936754;29;20314;-88
2021/05/18 00:28:22;;;;;;;4.30;1.50;;;;;;;14.43;100.00;96309.63;4937115;29;20231;-88
2021/05/18 00:30:49;;;;;;;1.83;1.50;;;;;;;14.50;100.00;96313.22;4937266;29;20299;-88
2021/05/18 00:33:17;;;;;;;2.43;1.40;;;;;;;14.41;100.00;96322.22;4937082;29;20205;-88
2021/05/18 00:35:45;;;;;;;1.50;1.40;;;;;;;14.09;100.00;96319.88;4936671;29;20823;-88
2021/05/18 00:38:14;;;;;;;1.60;1.50;;;;;;;14.22;100.00;96322.72;4936690;29;20207;-88
2021/05/18 00:40:41;;;;;;;2.20;1.60;;;;;;;14.03;100.00;96306.38;4936548;29;20263;-88
2021/05/18 00:43:11;;;;;;;2.50;2.00;;;;;;;14.20;100.00;96303.56;4935712;29;20198;-88
2021/05/18 00:45:40;;;;;;;1.70;1.60;;;;;;;14.22;100.00;96309.50;4936583;29;20207;-87
2021/05/18 00:48:08;;;;;;;2.00;1.90;;;;;;;13.99;100.00;96306.91;4936561;29;20199;-87
2021/05/18 00:50:37;;;;;;;2.23;1.63;;;;;;;13.98;100.00;96303.44;4936488;29;20205;-88
2021/05/18 00:53:04;;;;;;;4.70;1.60;;;;;;;14.01;100.00;96303.09;4936639;29;20203;-89
2021/05/18 00:55:37;;;;;;;1.30;1.20;;;;;;;13.96;100.00;96302.00;4936619;29;20778;-88
2021/05/18 01:00:53;;;;;;;2.70;1.53;;;;;;;14.11;100.00;96307.31;4936668;29;20194;-87
2021/05/18 01:03:39;;;;;;;1.30;1.20;;;;;;;13.94;100.00;96306.63;4948515;29;20694;-92
2021/05/18 01:11:48;;;;;;;2.30;1.80;;;;;;;13.34;100.00;96292.41;4917442;29;20203;-92
2021/05/18 01:14:17;;;;;;;4.23;1.30;;;;;;;13.39;100.00;96287.41;4917531;29;20635;-91
2021/05/18 01:16:47;;;;;;;1.77;1.50;;;;;;;13.42;100.00;96294.97;4917183;29;20234;-92
2021/05/18 01:19:16;;;;;;;1.57;1.30;;;;;;;13.35;100.00;96325.72;4917310;29;20207;-90
2021/05/18 01:21:44;;;;;;;1.17;1.13;;;;;;;13.19;100.00;96336.31;4917059;29;20254;-90
2021/05/18 01:24:12;;;;;;;3.43;1.40;;;;;;;13.06;100.00;96353.56;4917007;29;20340;-90
2021/05/18 01:26:39;;;;;;;2.30;1.40;;;;;;;12.97;100.00;96375.69;4917108;29;20192;-91
2021/05/18 01:29:08;;;;;;;1.30;1.20;;;;;;;12.91;100.00;96384.25;4916882;29;20207;-90
2021/05/18 01:31:35;;;;;;;1.10;1.10;;;;;;;12.96;100.00;96399.59;4916954;29;20199;-91
2021/05/18 01:34:04;;;;;;;1.23;1.23;;;;;;;12.77;100.00;96406.88;4916838;29;20199;-91
2021/05/18 01:36:32;;;;;;;1.83;1.43;;;;;;;13.13;100.00;96413.53;4916667;29;20230;-95
2021/05/18 01:39:08;;;;;;;4.13;1.40;;;;;;;13.32;100.00;96416.63;4916772;29;20203;-88
2021/05/18 01:44:20;;;;;;;1.97;1.63;;;;;;;13.35;100.00;96441.88;4916656;29;20248;-88
2021/05/18 01:46:47;;;;;;;1.60;1.50;;;;;;;13.49;100.00;96443.78;4916821;29;20286;-88
2021/05/18 01:49:18;;;;;;;4.27;1.70;;;;;;;13.54;100.00;96441.47;4916600;29;20649;-87
2021/05/18 01:51:46;;;;;;;1.60;1.47;;;;;;;13.55;100.00;96451.03;4916477;29;20255;-87
2021/05/18 01:54:33;;;;;;;1.80;1.70;;;;;;;13.56;100.00;96454.47;4916158;29;20266;-86
2021/05/18 01:57:16;;;;;;;1.67;1.57;;;;;;;13.56;100.00;96470.31;4916584;29;20645;-87
2021/05/18 01:59:43;;;;;;;4.30;1.77;;;;;;;13.41;100.00;96480.78;4916387;29;20184;-89
2021/05/18 02:02:11;;;;;;;1.83;1.60;;;;;;;13.50;100.00;96498.22;4915583;29;20207;-89
2021/05/18 02:04:43;;;;;;;1.60;1.50;;;;;;;13.43;100.00;96510.47;4916783;29;20275;-90
2021/05/18 02:07:12;;;;;;;1.60;1.50;;;;;;;13.57;100.00;96519.50;4934201;29;20293;-90
2021/05/18 02:09:40;;;;;;;1.43;1.33;;;;;;;13.66;100.00;96520.28;4935582;29;20294;-89
2021/05/18 02:12:07;;;;;;;1.87;1.40;;;;;;;13.73;100.00;96519.44;4935473;29;20238;-89
2021/05/18 02:14:36;;;;;;;2.80;1.93;;;;;;;13.69;100.00;96528.69;4935376;29;20209;-91
2021/05/18 02:17:13;;;;;;;1.30;1.20;;;;;;;13.69;100.00;96531.34;4935480;29;20209;-89
2021/05/18 02:19:54;;;;;;;2.50;1.17;;;;;;;13.75;100.00;96543.88;4934267;29;20206;-90
2021/05/18 02:25:04;;;;;;;1.97;1.20;;;;;;;13.70;100.00;96540.91;4934895;29;20293;-91
2021/05/18 02:27:31;;;;;;;3.33;1.40;;;;;;;13.74;100.00;96531.63;4935297;29;20213;-90
2021/05/18 02:30:01;;;;;;;1.40;1.30;;;;;;;13.91;100.00;96518.34;4935335;29;20199;-89
2021/05/18 02:32:30;;;;;;;1.43;1.37;;;;;;;13.72;100.00;96490.56;4934458;29;20238;-88
2021/05/18 02:34:57;;;;;;;1.27;1.23;;;;;;;13.66;100.00;96497.34;4935274;29;20237;-88
2021/05/18 02:37:25;;;;;;;2.40;1.30;;;;;;;13.62;100.00;96500.50;4934962;29;20211;-87
2021/05/18 02:39:52;;;;;;;1.40;1.30;;;;;;;13.73;100.00;96494.84;4935117;29;20206;-88
2021/05/18 02:42:20;;;;;;;1.97;1.83;;;;;;;13.61;100.00;96490.91;4935087;29;20199;-88
2021/05/18 02:44:50;;;;;;;1.83;1.60;;;;;;;13.53;100.00;96508.44;4934921;29;20209;-88
2021/05/18 02:50:02;;;;;;;2.90;1.57;;;;;;;13.18;100.00;96511.50;4935227;29;20194;-87
2021/05/18 02:52:31;;;;;;;1.83;1.50;;;;;;;13.04;100.00;96515.66;4934910;29;20261;-87
2021/05/18 02:54:58;;;;;;;1.43;1.33;;;;;;;13.01;100.00;96516.81;4934811;29;20203;-87
2021/05/18 02:57:33;;;;;;;1.60;1.50;;;;;;;13.07;100.00;96513.50;4934947;29;20199;-87
2021/05/18 03:00:01;;;;;;;1.70;1.37;;;;;;;13.14;100.00;96511.03;4935197;29;20190;-88
2021/05/18 03:02:28;;;;;;;2.83;1.40;;;;;;;13.21;100.00;96508.53;4934923;29;20678;-87
2021/05/18 03:04:55;;;;;;;1.30;1.20;;;;;;;13.21;100.00;96514.63;4935088;29;20203;-87
2021/05/18 03:07:22;;;;;;;1.20;1.10;;;;;;;13.32;100.00;96522.22;4938063;29;20202;-87
2021/05/18 03:09:49;;;;;;;0.80;0.80;;;;;;;13.16;100.00;96531.94;4937956;29;20195;-86
2021/05/18 03:12:16;;;;;;;0.83;0.83;;;;;;;13.25;100.00;96557.38;4938032;29;20254;-86
2021/05/18 03:14:44;;;;;;;0.90;0.90;;;;;;;13.20;100.00;96576.34;4937828;29;20207;-87
2021/05/18 03:17:11;;;;;;;1.60;1.30;;;;;;;13.06;100.00;96601.59;4937967;29;20195;-86
2021/05/18 03:19:38;;;;;;;0.97;0.80;;;;;;;12.96;100.00;96621.22;4937746;29;20632;-86
2021/05/18 03:22:05;;;;;;;1.83;1.03;;;;;;;12.84;100.00;96626.78;4937683;29;20199;-86
2021/05/18 03:24:33;;;;;;;1.17;1.10;;;;;;;12.99;100.00;96637.53;4937374;29;20238;-85
2021/05/18 03:26:59;;;;;;;1.83;1.00;;;;;;;12.94;100.00;96636.38;4935656;29;20225;-86
2021/05/18 03:29:31;;;;;;;1.40;1.33;;;;;;;13.06;100.00;96654.38;4936948;29;20205;-86
2021/05/18 03:34:45;;;;;;;1.70;1.00;;;;;;;12.86;100.00;96668.84;4936915;29;20194;-86
2021/05/18 03:37:16;;;;;;;2.10;1.23;;;;;;;12.80;100.00;96690.59;4937091;29;20229;-85
2021/05/18 03:39:46;;;;;;;3.67;1.30;;;;;;;12.81;100.00;96703.59;4939203;29;20222;-86
2021/05/18 03:42:16;;;;;;;1.10;1.07;;;;;;;12.89;100.00;96704.66;4936783;29;20203;-86
2021/05/18 03:44:54;;;;;;;1.37;1.27;;;;;;;12.94;100.00;96700.50;4936629;29;20209;-86
2021/05/18 03:53:00;;;;;;;2.60;1.07;;;;;;;12.55;100.00;96663.34;4937118;29;20186;-86
2021/05/18 03:58:42;;;;;;;1.73;1.63;;;;;;;12.26;100.00;96635.59;4937271;29;20190;-88
2021/05/18 04:04:04;;;;;;;3.57;1.40;;;;;;;12.53;100.00;96620.50;4936445;29;20617;-85
2021/05/18 04:12:17;;;;;;;4.67;1.37;;;;;;;12.23;100.00;96641.19;4936441;29;20597;-85
2021/05/18 04:17:30;;;;;;;1.40;1.30;;;;;;;12.34;100.00;96647.97;4936193;29;20189;-84
2021/05/18 04:20:10;;;;;;;2.33;1.47;;;;;;;12.25;100.00;96664.72;4936098;29;20207;-84
2021/05/18 04:22:58;;;;;;;1.67;1.57;;;;;;;12.21;100.00;96669.50;4936533;29;20191;-83
2021/05/18 04:25:51;;;;;;;1.97;1.80;;;;;;;12.10;100.00;96673.25;4936127;29;20281;-84
2021/05/18 04:39:29;;;;;;;2.00;1.30;;;;;;;12.18;100.00;96704.06;4935748;29;20576;-84
2021/05/18 04:42:32;;;;;;;0.90;0.90;;;;;;;12.25;100.00;96709.53;4935965;29;20186;-84
2021/05/18 04:50:55;;;;;;;7.20;1.30;;;;;;;12.23;100.00;96703.63;4901298;29;20198;-84
2021/05/18 04:53:29;;;;;;;4.47;1.50;;;;;;;12.39;100.00;96708.94;4935904;29;20571;-84
2021/05/18 05:01:32;;;;;;;1.00;1.00;;;;;;;12.79;100.00;96726.72;4936159;29;20195;-84
2021/05/18 05:04:10;;;;;;;1.33;1.20;;;;;;;12.98;100.00;96736.13;4935361;29;20257;-84
2021/05/18 05:06:50;;;;;;;3.07;1.40;;;;;;;13.10;100.00;96749.84;4935422;29;20259;-84
2021/05/18 05:09:23;;;;;;;1.77;1.67;;;;;;;13.34;100.00;96756.19;4935560;29;20236;-84
2021/05/18 05:14:34;;;;;;;2.70;1.80;;;;;;;13.72;100.00;96775.84;4935219;29;20234;-84
2021/05/18 05:17:01;;;;;;;2.07;1.93;;;;;;;13.89;100.00;96782.78;4935256;29;20723;-84
2021/05/18 05:19:29;;;;;;;2.47;1.90;;;;;;;14.05;100.00;96795.13;4935064;29;20202;-84
2021/05/18 05:21:56;;;;;;;4.43;2.40;;;;;;;14.22;100.00;96788.81;4935228;29;20199;-84
2021/05/18 05:24:25;;;;;;;2.50;2.40;;;;;;;14.39;100.00;96786.13;4934700;29;20250;-84
2021/05/18 05:26:53;;;;;;;3.33;2.60;;;;;;;14.46;100.00;96773.88;4935118;29;20583;-84
2021/05/18 05:29:20;;;;;;;3.47;2.20;;;;;;;14.53;100.00;96766.94;4934776;29;20203;-84
2021/05/18 05:31:48;;;;;;;2.30;2.20;;;;;;;14.64;100.00;96753.34;4935187;29;20285;-84
2021/05/18 05:34:16;;;;;;;2.00;1.90;;;;;;;14.72;100.00;96745.38;4934665;29;20211;-84
2021/05/18 05:36:43;;;;;;;3.57;2.30;;;;;;;14.88;100.00;96725.94;4934941;29;20708;-84
2021/05/18 05:39:18;;;;;;;2.70;2.50;;;;;;;14.95;100.00;96695.13;4934866;29;20238;-84
2021/05/18 05:41:48;;;;;;;4.03;2.53;;;;;;;15.19;100.00;96661.53;4935454;29;20651;-84
2021/05/18 05:44:14;;;;;;;2.67;2.40;;;;;;;15.15;100.00;96612.59;4934505;29;20199;-83
2021/05/18 05:46:42;;;;;;;3.43;1.90;;;;;;;15.27;100.00;96582.03;4934932;29;20250;-84
2021/05/18 05:49:09;;;;;;;3.43;2.67;;;;;;;15.37;100.00;96545.50;4934824;29;20225;-83
2021/05/18 05:54:19;;;;;;;2.57;1.90;;;;;;;15.85;100.00;96505.41;4933488;29;20263;-83
2021/05/18 05:56:46;;;;;;;2.03;1.93;;;;;;;16.15;100.00;96490.25;4934346;29;20843;-83
2021/05/18 05:59:17;;;;;;;1.90;1.80;;;;;;;15.84;100.00;96462.19;4934592;29;20214;-84
2021/05/18 06:01:44;;;;;;;2.23;1.90;;;;;;;15.99;100.00;96443.59;4934534;29;20197;-83
2021/05/18 06:04:11;;;;;;;3.13;2.90;;;;;;;15.98;100.00;96426.06;4934530;29;20205;-83
2021/05/18 06:06:38;;;;;;;4.03;2.30;;;;;;;16.09;100.00;96414.13;4934697;29;20194;-83
2021/05/18 06:09:05;;;;;;;2.30;2.10;;;;;;;16.15;100.00;96416.03;4934441;29;20205;-83
2021/05/18 06:11:40;;;;;;;2.70;2.40;;;;;;;16.52;100.00;96412.28;4934578;29;20209;-83
2021/05/18 06:14:32;;;;;;;2.73;2.33;;;;;;;16.41;100.00;96404.81;4934517;29;20196;-84
2021/05/18 06:41:57;;;;;;;2.37;2.00;;;;;;;15.95;100.00;96380.53;4937054;29;20208;-84
2021/05/18 06:47:11;;;;;;;2.47;2.30;;;;;;;16.75;100.00;96329.75;4938250;29;20184;-84
2021/05/18 06:49:42;;;;;;;3.93;2.37;;;;;;;17.01;100.00;96305.19;4937668;29;20309;-85
2021/05/18 06:52:09;;;;;;;1.90;1.80;;;;;;;17.18;100.00;96279.13;4938264;29;20659;-85
2021/05/18 06:54:36;;;;;;;2.03;1.83;;;;;;;17.13;100.00;96251.50;4937819;29;20212;-85
2021/05/18 06:57:06;;;;;;;3.10;2.30;;;;;;;17.15;100.00;96236.22;4937787;29;20229;-84
2021/05/18 07:02:17;;;;;;;2.47;1.90;;;;;;;18.01;100.00;96225.66;4937925;29;20190;-84
2021/05/18 07:04:46;;;;;;;5.00;2.27;;;;;;;18.28;100.00;96216.59;4937478;29;20699;-85
2021/05/18 07:07:17;;;;;;;2.20;2.10;;;;;;;17.67;100.00;96208.06;4937747;29;20649;-85
2021/05/18 07:09:44;;;;;;;5.13;1.97;;;;;;;18.13;100.00;96199.28;4937830;29;20596;-85
2021/05/18 07:12:11;;;;;;;2.50;1.83;;;;;;;18.61;100.00;96178.44;4937613;29;20210;-84
2021/05/18 07:14:38;;;;;;;3.83;2.10;;;;;;;18.63;100.00;96160.41;4937374;29;20203;-85
2021/05/18 07:17:05;;;;;;;2.87;1.73;;;;;;;18.71;100.00;96157.56;4937206;29;20669;-85
2021/05/18 07:19:32;;;;;;;2.43;1.80;;;;;;;18.59;100.00;96156.53;4937239;29;20203;-84
2021/05/18 07:22:00;;;;;;;2.00;1.77;;;;;;;18.63;100.00;96160.41;4937428;29;20214;-84
2021/05/18 07:24:29;;;;;;;2.23;1.97;;;;;;;18.97;100.00;96153.91;4936978;29;20242;-85
2021/05/18 07:26:56;;;;;;;2.07;1.97;;;;;;;18.89;100.00;96154.19;4937060;29;20195;-85
2021/05/18 07:29:23;;;;;;;1.83;1.73;;;;;;;19.07;100.00;96164.09;4937019;29;20258;-85
2021/05/18 07:31:50;;;;;;;2.20;1.90;;;;;;;18.50;100.00;96140.00;4937207;29;20202;-85
2021/05/18 07:34:17;;;;;;;2.47;2.00;;;;;;;18.56;100.00;96138.31;4937133;29;20206;-85
2021/05/18 07:36:44;;;;;;;3.83;2.13;;;;;;;19.13;100.00;96157.94;4937190;29;20234;-85
2021/05/18 07:39:11;;;;;;;1.93;1.63;;;;;;;19.51;100.00;96145.56;4936842;29;20629;-85
2021/05/18 07:41:39;;;;;;;3.00;1.70;;;;;;;18.45;100.00;96141.66;4937005;29;20199;-85
2021/05/18 07:44:07;;;;;;;2.17;1.60;;;;;;;17.83;100.00;96143.88;4936771;29;20210;-85
2021/05/18 07:46:37;;;;;;;1.87;1.57;;;;;;;18.10;100.00;96141.97;4937296;29;20207;-85
2021/05/18 07:49:19;;;;;;;1.53;1.40;;;;;;;18.54;100.00;96135.06;4936622;29;20203;-86
2021/05/18 07:59:12;;;;;;;2.97;1.87;;;;;;;19.07;100.00;96129.47;4936803;29;20186;-86
2021/05/18 08:00:34;;;;;;;1.63;1.53;;;;;;;19.23;100.00;96125.50;4936824;29;20194;-85
2021/05/18 08:05:52;;;;;;;1.50;1.40;;;;;;;19.39;100.00;96118.78;4936639;29;20181;-85
2021/05/18 08:08:19;;;;;;;2.57;1.37;;;;;;;19.00;100.00;96118.88;4936406;29;20270;-85
2021/05/18 08:10:49;;;;;;;1.60;1.50;;;;;;;19.36;100.00;96117.41;4937204;29;20221;-85
2021/05/18 08:13:21;;;;;;;1.20;1.20;;;;;;;19.19;100.00;96106.47;4936577;29;20221;-85
2021/05/18 08:19:11;;;;;;;1.23;1.17;;;;;;;19.26;100.00;96103.75;4877843;29;20261;-86
2021/05/18 08:21:55;;;;;;;1.93;1.27;;;;;;;19.49;100.00;96098.59;4933479;29;20202;-85
2021/05/18 10:35:44;;;;;;;0.60;0.60;;;;;;;21.55;100.00;95913.41;4920171;29;20242;-90
2021/05/18 10:38:17;;;;;;;0.50;0.50;;;;;;;21.37;100.00;95892.97;4920738;29;20203;-92
2021/05/18 10:40:44;;;;;;;0.87;0.53;;;;;;;21.49;100.00;95874.25;4920638;29;20619;-91
2021/05/18 10:43:37;;;;;;;0.67;0.67;;;;;;;21.44;100.00;95844.72;4919955;29;20218;-90
2021/05/18 10:46:23;;;;;;;0.57;0.50;;;;;;;21.67;100.00;95850.00;4880846;29;20774;-91
2021/05/18 10:48:55;;;;;;;0.40;0.40;;;;;;;21.69;100.00;95791.75;4889887;29;20666;-90
2021/05/18 10:51:30;;;;;;;0.43;0.43;;;;;;;21.54;100.00;95764.72;4899354;29;20204;-93
2021/05/18 10:57:20;;;;;;;1.43;0.87;;;;;;;21.85;100.00;95704.53;4873841;29;20236;-90
2021/05/18 10:59:51;;;;;;;0.50;0.50;;;;;;;21.85;100.00;95691.97;4880477;29;20645;-91
2021/05/18 11:05:08;;;;;;;0.60;0.60;;;;;;;21.72;100.00;95592.53;4880145;29;20209;-91
2021/05/18 11:07:36;;;;;;;0.63;0.50;;;;;;;21.80;100.00;95573.41;4880304;29;20201;-90
2021/05/18 11:10:06;;;;;;;1.07;0.50;;;;;;;21.88;100.00;95540.88;4880191;29;20201;-90
2021/05/18 11:12:34;;;;;;;1.10;0.80;;;;;;;21.96;100.00;95511.03;4880218;29;20213;-90
2021/05/18 11:15:15;;;;;;;0.70;0.70;;;;;;;22.05;100.00;95541.63;4880297;29;20205;-89
2021/05/18 11:17:43;;;;;;;1.73;0.53;;;;;;;21.59;100.00;95510.78;4879991;29;20282;-91
2021/05/18 11:20:22;;;;;;;0.57;0.57;;;;;;;21.88;100.00;95471.31;4880156;29;20729;-91
2021/05/18 11:23:24;;;;;;;0.60;0.60;;;;;;;22.30;100.00;95431.41;4898704;29;20215;-89
2021/05/18 11:25:54;;;;;;;0.57;0.57;;;;;;;22.34;100.00;95348.72;4918420;29;20238;-88
2021/05/18 11:28:24;;;;;;;0.77;0.50;;;;;;;21.92;100.00;95279.81;4919128;29;20203;-89
2021/05/18 11:30:53;;;;;;;1.30;0.60;;;;;;;21.62;100.00;95325.00;4919182;29;20583;-90
2021/05/18 11:33:21;;;;;;;0.93;0.80;;;;;;;22.09;100.00;95317.97;4919132;29;20210;-92
2021/05/18 11:36:02;;;;;;;0.73;0.63;;;;;;;21.76;100.00;95286.09;4918863;29;20227;-89
2021/05/18 11:38:29;;;;;;;2.03;0.77;;;;;;;22.22;100.00;95290.00;4919490;29;20266;-91
2021/05/18 11:41:20;;;;;;;0.50;0.50;;;;;;;22.05;100.00;95223.19;4933261;29;20226;-90
2021/05/18 11:43:49;;;;;;;0.63;0.50;;;;;;;22.40;100.00;95226.41;4939613;29;20649;-91
2021/05/18 11:46:34;;;;;;;0.70;0.70;;;;;;;22.22;100.00;95155.38;4937857;29;20199;-90
2021/05/18 11:49:04;;;;;;;0.77;0.73;;;;;;;22.43;100.00;95194.59;4937752;29;20198;-92
2021/05/18 11:51:43;;;;;;;0.83;0.50;;;;;;;22.35;100.00;95122.81;4938143;29;20265;-90
2021/05/18 11:54:11;;;;;;;1.00;0.50;;;;;;;22.47;100.00;95112.66;4937718;29;20191;-91
2021/05/18 11:56:39;;;;;;;0.50;0.50;;;;;;;22.59;100.00;95117.81;4937575;29;20237;-91
2021/05/18 11:59:07;;;;;;;0.80;0.50;;;;;;;22.35;100.00;95090.69;4937615;29;20209;-91
2021/05/18 12:01:39;;;;;;;1.20;0.50;;;;;;;22.53;100.00;95074.16;4937549;29;20230;-91
2021/05/18 12:04:13;;;;;;;0.87;0.50;;;;;;;22.70;100.00;95107.94;4937526;29;20190;-90
2021/05/18 12:06:58;;;;;;;0.60;0.60;;;;;;;22.75;100.00;95041.78;4937674;29;20201;-89
2021/05/18 12:09:33;;;;;;;1.60;0.60;;;;;;;22.74;100.00;95034.84;4937380;29;20226;-88
2021/05/18 12:12:01;;;;;;;0.60;0.60;;;;;;;22.86;100.00;95018.53;4936994;29;20240;-88
2021/05/18 12:14:28;;;;;;;1.33;0.50;;;;;;;22.91;100.00;95007.00;4937178;29;20660;-88
2021/05/18 12:16:57;;;;;;;0.50;0.50;;;;;;;22.14;100.00;95000.66;4937184;29;20230;-88
2021/05/18 12:19:25;;;;;;;2.30;0.93;;;;;;;22.38;100.00;95067.94;4937134;29;20195;-88
2021/05/18 12:21:56;;;;;;;0.40;0.40;;;;;;;21.92;100.00;94535.38;4937161;29;20652;-88
2021/05/18 12:24:24;;;;;;;1.80;0.60;;;;;;;21.42;100.00;92972.09;4936737;29;20608;-88
2021/05/18 12:26:56;;;;;;;0.70;0.60;;;;;;;21.36;100.00;93472.84;4937080;29;20733;-89
2021/05/18 12:29:31;;;;;;;0.97;0.70;;;;;;;21.28;100.00;93744.09;4937015;29;20191;-89
2021/05/18 12:32:26;;;;;;;0.60;0.60;;;;;;;21.89;100.00;93875.38;4936835;29;20190;-89
2021/05/18 12:34:55;;;;;;;2.20;0.40;;;;;;;21.63;100.00;94131.53;4926915;29;20238;-89
2021/05/18 12:37:32;;;;;;;1.57;0.70;;;;;;;21.64;100.00;94202.63;4936375;29;20777;-89
2021/05/18 12:40:01;;;;;;;1.03;0.80;;;;;;;21.51;100.00;94348.38;4936596;29;20265;-91
2021/05/18 12:42:31;;;;;;;1.63;0.93;;;;;;;21.27;100.00;94423.78;4936780;29;20238;-89
2021/05/18 12:45:00;;;;;;;0.57;0.53;;;;;;;20.86;100.00;94490.59;4936915;29;20195;-89
2021/05/18 12:47:32;;;;;;;1.13;0.60;;;;;;;20.58;100.00;94472.41;4936522;29;20751;-89
2021/05/18 12:50:08;;;;;;;6.13;2.40;;;;;;;19.69;100.00;94557.63;4936557;29;20717;-88
2021/05/18 12:52:37;;;;;;;8.17;0.90;;;;;;;18.92;100.00;94470.22;4936384;29;20428;-89
2021/05/18 12:55:14;;;;;;;0.77;0.70;;;;;;;18.64;100.00;94714.25;4936297;29;20257;-89
2021/05/18 12:57:54;;;;;;;5.83;1.20;;;;;;;17.03;100.00;95142.16;4935992;29;20703;-87
2021/05/18 13:00:26;;;;;;;1.70;0.80;;;;;;;16.86;100.00;95864.69;4936175;29;20652;-87
2021/05/18 13:02:54;;;;;;;2.50;0.80;;;;;;;16.31;100.00;96192.94;4935742;29;20198;-87
2021/05/18 13:05:23;;;;;;;4.43;1.00;;;;;;;16.50;100.00;96214.50;4936050;29;20315;-86
2021/05/18 13:08:11;;;;;;;0.50;0.50;;;;;;;16.73;100.00;96143.34;4936058;29;20221;-87
2021/05/18 13:10:46;;;;;;;1.07;0.57;;;;;;;16.36;100.00;96274.59;4936030;29;20183;-87
2021/05/18 13:13:13;;;;;;;0.77;0.77;;;;;;;16.87;100.00;96426.44;4936183;29;20194;-89
2021/05/18 13:15:41;;;;;;;1.10;0.70;;;;;;;17.31;100.00;96430.56;4935836;29;20209;-88
2021/05/18 13:18:17;;;;;;;0.67;0.67;;;;;;;17.92;100.00;96394.44;4935772;29;20282;-87
2021/05/18 13:20:48;;;;;;;0.70;0.70;;;;;;;18.32;100.00;96381.97;4934890;29;20687;-88
2021/05/18 13:23:23;;;;;;;1.60;0.70;;;;;;;18.50;100.00;96362.75;4935699;29;20202;-86
2021/05/18 13:28:35;;;;;;;0.53;0.50;;;;;;;18.93;100.00;96295.72;4935538;29;20249;-87
2021/05/18 13:31:03;;;;;;;0.83;0.60;;;;;;;19.21;100.00;96280.22;4935332;29;20198;-87
2021/05/18 13:33:31;;;;;;;0.70;0.70;;;;;;;19.28;100.00;96258.88;4935161;29;20345;-87
2021/05/18 13:35:58;;;;;;;0.50;0.50;;;;;;;19.57;100.00;96246.81;4935268;29;20273;-87
2021/05/18 13:38:28;;;;;;;0.50;0.50;;;;;;;19.34;100.00;96215.38;4935153;29;20214;-87
2021/05/18 13:40:54;;;;;;;0.90;0.67;;;;;;;19.11;100.00;96199.13;4935399;29;20289;-88
2021/05/18 13:43:22;;;;;;;0.50;0.50;;;;;;;19.34;100.00;96202.06;4935269;29;20237;-87
2021/05/18 13:45:49;;;;;;;0.57;0.50;;;;;;;19.63;100.00;96181.97;4935357;29;20194;-88
2021/05/18 13:48:16;;;;;;;0.60;0.60;;;;;;;19.79;100.00;96177.16;4935464;29;20241;-87
2021/05/18 13:50:43;;;;;;;0.70;0.70;;;;;;;19.94;100.00;96178.44;4935262;29;20226;-89
2021/05/18 13:53:10;;;;;;;0.47;0.47;;;;;;;19.69;100.00;96150.97;4934880;29;20194;-87
2021/05/18 13:55:37;;;;;;;0.67;0.67;;;;;;;19.93;100.00;96138.66;4935008;29;20207;-87
2021/05/18 13:58:04;;;;;;;2.20;0.73;;;;;;;20.32;100.00;96137.41;4934493;29;20231;-88
2021/05/18 14:00:31;;;;;;;0.60;0.60;;;;;;;20.13;100.00;96085.91;4935106;29;20202;-88
2021/05/18 14:02:58;;;;;;;4.33;0.80;;;;;;;20.23;100.00;96057.84;4934855;29;20211;-87
2021/05/18 14:05:27;;;;;;;3.10;0.87;;;;;;;20.13;100.00;96008.53;4935069;29;20249;-86
2021/05/18 14:08:31;;;;;;;0.50;0.50;;;;;;;20.25;100.00;95965.06;4934824;29;20278;-87
2021/05/18 14:11:04;;;;;;;0.60;0.60;;;;;;;20.33;100.00;95938.03;4935262;29;20217;-87
2021/05/18 14:13:36;;;;;;;0.77;0.77;;;;;;;20.31;100.00;95934.81;4934788;29;20242;-87
2021/05/18 14:16:11;;;;;;;0.60;0.60;;;;;;;20.46;100.00;95929.84;4934933;29;20218;-90
2021/05/18 14:18:39;;;;;;;0.80;0.80;;;;;;;20.67;100.00;95949.88;4935503;29;20565;-89
2021/05/18 14:21:06;;;;;;;1.60;0.60;;;;;;;20.58;100.00;95936.06;4935299;29;20234;-89
2021/05/18 14:23:41;;;;;;;0.80;0.57;;;;;;;20.61;100.00;95911.56;4935221;29;20217;-89
2021/05/18 14:26:08;;;;;;;0.70;0.70;;;;;;;20.48;100.00;95836.19;4935089;29;20241;-90
2021/05/18 14:28:36;;;;;;;1.10;0.60;;;;;;;20.51;100.00;95815.22;4934856;29;20281;-89
2021/05/18 14:31:05;;;;;;;5.37;1.07;;;;;;;20.68;100.00;95890.09;4935440;29;20210;-90
2021/05/18 14:33:32;;;;;;;1.80;0.80;;;;;;;20.79;100.00;95925.88;4935242;29;20290;-89
2021/05/18 14:35:59;;;;;;;0.77;0.77;;;;;;;19.99;100.00;95852.34;4935482;29;20198;-87
2021/05/18 14:38:27;;;;;;;1.50;0.83;;;;;;;19.86;100.00;95882.69;4934953;29;20210;-88
2021/05/18 14:46:31;;;;;;;1.57;0.50;;;;;;;19.60;100.00;95921.13;4935216;29;20182;-88
2021/05/18 14:57:12;;;;;;;0.40;0.40;;;;;;;19.61;100.00;95932.63;4895225;29;20611;-86
2021/05/18 14:59:38;;;;;;;4.43;0.93;;;;;;;19.56;100.00;95953.78;4926079;29;20203;-86
2021/05/18 15:02:05;;;;;;;1.17;0.80;;;;;;;19.78;100.00;95957.69;4935889;29;20206;-84
2021/05/18 15:04:34;;;;;;;0.60;0.60;;;;;;;19.91;100.00;95933.47;4937862;29;20613;-85
2021/05/18 15:07:04;;;;;;;0.93;0.90;;;;;;;20.10;100.00;95933.47;4937570;29;20702;-85
2021/05/18 15:09:31;;;;;;;0.63;0.60;;;;;;;20.16;100.00;95938.72;4937182;29;20279;-84
2021/05/18 15:11:58;;;;;;;1.07;0.90;;;;;;;20.09;100.00;95886.47;4937961;29;20671;-85
2021/05/18 15:14:29;;;;;;;0.63;0.60;;;;;;;19.82;100.00;95846.84;4937633;29;20728;-85
2021/05/18 15:16:56;;;;;;;0.90;0.70;;;;;;;19.58;100.00;95845.91;4937845;29;20713;-85
2021/05/18 15:19:24;;;;;;;0.93;0.60;;;;;;;19.65;100.00;95854.66;4935903;29;20740;-88
2021/05/18 15:21:51;;;;;;;0.60;0.60;;;;;;;19.46;100.00;95853.03;4938352;29;20213;-87
2021/05/18 15:24:21;;;;;;;1.27;1.17;;;;;;;19.61;100.00;95812.66;4937594;29;20242;-88
2021/05/18 15:26:48;;;;;;;2.17;0.60;;;;;;;19.77;100.00;95789.91;4937798;29;20226;-88
2021/05/18 15:29:18;;;;;;;0.50;0.50;;;;;;;19.53;100.00;95781.78;4937760;29;20198;-86
2021/05/18 15:31:46;;;;;;;1.63;0.60;;;;;;;19.58;100.00;95795.25;4937361;29;20198;-85
2021/05/18 15:34:13;;;;;;;0.83;0.53;;;;;;;19.33;100.00;95743.94;4937308;29;20222;-85
2021/05/18 15:36:41;;;;;;;0.73;0.73;;;;;;;19.47;100.00;95762.19;4937579;29;20233;-87
2021/05/18 15:39:10;;;;;;;1.50;0.60;;;;;;;19.30;100.00;95760.41;4937930;29;20199;-85
2021/05/18 15:41:37;;;;;;;1.37;1.27;;;;;;;19.41;100.00;95807.59;4937116;29;20262;-86
2021/05/18 15:44:06;;;;;;;3.70;0.97;;;;;;;19.34;100.00;95790.88;4937491;29;20195;-85
2021/05/18 15:46:33;;;;;;;0.77;0.77;;;;;;;19.16;100.00;95779.22;4937572;29;20221;-86
2021/05/18 15:49:00;;;;;;;2.80;2.60;;;;;;;19.35;100.00;95781.84;4937207;29;20203;-86
2021/05/18 15:51:30;;;;;;;0.60;0.60;;;;;;;19.20;100.00;95785.72;4937226;29;20229;-86
2021/05/18 15:53:57;;;;;;;0.70;0.70;;;;;;;19.36;100.00;95794.13;4937301;29;20277;-87
2021/05/18 15:56:24;;;;;;;2.00;1.00;;;;;;;19.51;100.00;95773.22;4937299;29;20269;-87
2021/05/18 15:58:51;;;;;;;0.90;0.60;;;;;;;19.45;100.00;95779.44;4937257;29;20735;-87
2021/05/18 16:01:18;;;;;;;1.93;1.83;;;;;;;19.61;100.00;95757.50;4937652;29;20238;-87
2021/05/18 16:03:45;;;;;;;0.60;0.60;;;;;;;19.36;100.00;95804.78;4937045;29;20209;-87
2021/05/18 16:06:12;;;;;;;2.27;0.90;;;;;;;18.89;100.00;95781.38;4936960;29;20242;-86